KBLM/BLM METAR and TAF weather

Enter ICAO airport designator
Station Type Date Time Source
KBLM METAR 2019/10/17 03:56 UTC NOAA

KBLM 170356Z AUTO 28022G29KT 10SM OVC026 12/08 A2927 RMK AO2 PK WND 28037/0333 SLP911 T01170078


Station Type Date Time Source
KBLM Decoded METAR 2019/10/17 03:56 UTC NOAA

Belmar-Farmingdale, NJ, United States (KBLM) 40-11N 074-08W
Oct 16, 2019 - 11:56 PM EDT / 2019.10.17 0356 UTC
Wind: from the W (280 degrees) at 25 MPH (22 KT) gusting to 33 MPH (29 KT):0
Visibility: 10 mile(s):0
Sky conditions: overcast
Temperature: 53.1 F (11.7 C)
Dew Point: 46.0 F (7.8 C)
Relative Humidity: 76%
Pressure (altimeter): 29.27 in. Hg (991 hPa)
ob: KBLM 170356Z AUTO 28022G29KT 10SM OVC026 12/08 A2927 RMK AO2 PK WND 28037/0333 SLP911 T01170078
cycle: 4

Station Type Date Time Source
KBLM TAF UTC NOAA

Error!

Example: see airport list